createdAt,value
2018-01-12T00:00:37.094Z,0
2018-01-12T00:01:17.713Z,0
2018-01-12T00:01:58.279Z,0
2018-01-12T00:02:38.853Z,0
2018-01-12T00:03:19.422Z,0
2018-01-12T00:04:00.002Z,0
2018-01-12T00:04:40.566Z,0
2018-01-12T00:05:21.137Z,0
2018-01-12T00:06:01.707Z,0
2018-01-12T00:06:42.285Z,0
2018-01-12T00:07:22.880Z,0
2018-01-12T00:08:03.440Z,0
2018-01-12T00:08:44.005Z,0
2018-01-12T00:09:24.576Z,0
2018-01-12T00:10:05.135Z,0
2018-01-12T00:10:45.689Z,0
2018-01-12T00:11:26.257Z,0
2018-01-12T00:12:06.846Z,0
2018-01-12T00:12:47.433Z,0
2018-01-12T00:13:28.032Z,0
2018-01-12T00:14:08.604Z,0
2018-01-12T00:14:49.171Z,0
2018-01-12T00:15:29.739Z,0
2018-01-12T00:16:10.298Z,0
2018-01-12T00:16:50.866Z,0
2018-01-12T00:17:31.457Z,0
2018-01-12T00:18:12.048Z,0
2018-01-12T00:18:52.615Z,0
2018-01-12T00:19:33.210Z,0
2018-01-12T00:20:13.767Z,0
2018-01-12T00:20:54.336Z,0
2018-01-12T00:21:34.909Z,0
2018-01-12T00:22:15.508Z,0
2018-01-12T00:22:56.054Z,0
2018-01-12T00:23:36.623Z,0
2018-01-12T00:24:17.206Z,0
2018-01-12T00:24:57.760Z,0
2018-01-12T00:25:38.380Z,0
2018-01-12T00:26:18.923Z,0
2018-01-12T00:26:59.495Z,0
2018-01-12T00:27:40.066Z,0
2018-01-12T00:28:20.654Z,0
2018-01-12T00:29:01.210Z,0
2018-01-12T00:29:41.779Z,0
2018-01-12T00:30:22.356Z,0
2018-01-12T00:31:02.924Z,0
2018-01-12T00:31:43.488Z,0
2018-01-12T00:32:24.075Z,0
2018-01-12T00:33:04.657Z,0
2018-01-12T00:33:45.237Z,0
2018-01-12T00:34:25.815Z,0
2018-01-12T00:35:06.384Z,0
2018-01-12T00:35:46.969Z,0
2018-01-12T00:36:27.531Z,0
2018-01-12T00:37:08.148Z,0
2018-01-12T00:37:48.717Z,0
2018-01-12T00:38:29.277Z,0
2018-01-12T00:39:09.897Z,0
2018-01-12T00:39:50.447Z,0
2018-01-12T00:40:31.014Z,0
2018-01-12T00:41:11.579Z,0
2018-01-12T00:41:52.151Z,0
2018-01-12T00:42:32.706Z,0
2018-01-12T00:43:13.304Z,0
2018-01-12T00:43:53.880Z,0
2018-01-12T00:44:34.446Z,0
2018-01-12T00:45:15.018Z,0
2018-01-12T00:45:55.587Z,0
2018-01-12T00:46:36.151Z,0
2018-01-12T00:47:16.824Z,0
2018-01-12T00:47:57.382Z,0
2018-01-12T00:48:37.962Z,0
2018-01-12T00:49:18.596Z,0
2018-01-12T00:49:59.163Z,0
2018-01-12T00:50:39.727Z,0
2018-01-12T00:51:20.304Z,0
2018-01-12T00:52:00.877Z,0
2018-01-12T00:52:41.451Z,0
2018-01-12T00:53:22.015Z,0
2018-01-12T00:54:02.593Z,0
2018-01-12T00:54:43.174Z,0
2018-01-12T00:55:23.739Z,0
2018-01-12T00:56:04.308Z,0
2018-01-12T00:56:44.889Z,0
2018-01-12T00:57:25.457Z,0
2018-01-12T00:58:06.043Z,0
2018-01-12T00:58:46.605Z,0
2018-01-12T00:59:27.178Z,0
2018-01-12T01:00:07.735Z,0
2018-01-12T01:00:48.335Z,0
2018-01-12T01:01:28.905Z,0
2018-01-12T01:02:09.489Z,0
2018-01-12T01:02:50.062Z,0
2018-01-12T01:03:30.633Z,0
2018-01-12T01:04:11.270Z,0
2018-01-12T01:04:51.836Z,0
2018-01-12T01:05:32.387Z,0
2018-01-12T01:06:12.961Z,0
2018-01-12T01:06:53.525Z,0
2018-01-12T01:07:34.075Z,0
2018-01-12T01:08:14.639Z,0
2018-01-12T01:08:55.219Z,0
2018-01-12T01:09:35.793Z,0
2018-01-12T01:10:16.394Z,0
2018-01-12T01:10:56.940Z,0
2018-01-12T01:11:37.530Z,0
2018-01-12T01:12:18.113Z,0
2018-01-12T01:12:58.674Z,0
2018-01-12T01:13:39.268Z,0
2018-01-12T01:14:19.835Z,0
2018-01-12T01:15:00.384Z,0
2018-01-12T01:15:40.949Z,0
2018-01-12T01:16:21.532Z,0
2018-01-12T01:17:02.087Z,0
2018-01-12T01:17:43.364Z,0
2018-01-12T01:18:23.927Z,0
2018-01-12T01:19:04.514Z,0
2018-01-12T01:19:45.089Z,0
2018-01-12T01:20:25.657Z,0
2018-01-12T01:21:06.312Z,0
2018-01-12T01:21:46.894Z,0
2018-01-12T01:22:27.442Z,0
2018-01-12T01:23:08.032Z,0
2018-01-12T01:23:48.595Z,0
2018-01-12T01:24:29.158Z,0
2018-01-12T01:25:09.725Z,0
2018-01-12T01:25:50.333Z,0
2018-01-12T01:26:30.895Z,0
2018-01-12T01:27:11.462Z,0
2018-01-12T01:27:52.023Z,0
2018-01-12T01:28:32.592Z,0
2018-01-12T01:29:13.189Z,0
2018-01-12T01:29:53.772Z,0
2018-01-12T01:30:34.355Z,0
2018-01-12T01:31:14.910Z,0
2018-01-12T01:31:55.460Z,0
2018-01-12T01:32:36.021Z,0
2018-01-12T01:33:16.600Z,0
2018-01-12T01:33:57.148Z,0
2018-01-12T01:34:37.737Z,0
2018-01-12T01:35:18.346Z,0
2018-01-12T01:35:58.952Z,0
2018-01-12T01:36:39.531Z,0
2018-01-12T01:37:20.118Z,0
2018-01-12T01:38:00.692Z,0
2018-01-12T01:38:41.259Z,0
2018-01-12T01:39:21.825Z,0
2018-01-12T01:40:02.388Z,0
2018-01-12T01:40:42.959Z,0
2018-01-12T01:41:23.534Z,0
2018-01-12T01:42:04.109Z,0
2018-01-12T01:42:44.727Z,0
2018-01-12T01:43:25.305Z,0
2018-01-12T01:44:05.884Z,0
2018-01-12T01:44:46.455Z,0
2018-01-12T01:45:27.020Z,0
2018-01-12T01:46:07.604Z,0
2018-01-12T01:46:48.208Z,0
2018-01-12T01:47:28.783Z,0
2018-01-12T01:48:09.356Z,0
2018-01-12T01:48:49.917Z,0
2018-01-12T01:49:30.486Z,0
2018-01-12T01:50:11.059Z,0
2018-01-12T01:50:51.643Z,0
2018-01-12T01:51:32.233Z,0
2018-01-12T01:52:12.834Z,0
2018-01-12T01:52:53.381Z,0
2018-01-12T01:53:33.950Z,0
2018-01-12T01:54:14.530Z,0
2018-01-12T01:54:55.146Z,0
2018-01-12T01:55:35.703Z,0
2018-01-12T01:56:16.260Z,0
2018-01-12T01:56:56.824Z,0
2018-01-12T01:57:37.391Z,0
2018-01-12T01:58:17.953Z,0
2018-01-12T01:58:58.515Z,0
2018-01-12T01:59:39.718Z,0
2018-01-12T02:00:20.279Z,0
2018-01-12T02:01:00.832Z,0
2018-01-12T02:01:41.385Z,0
2018-01-12T02:02:21.952Z,0
2018-01-12T02:03:02.510Z,0
2018-01-12T02:03:43.080Z,0
2018-01-12T02:04:23.665Z,0
2018-01-12T02:05:04.247Z,0
2018-01-12T02:05:44.815Z,0
2018-01-12T02:06:25.378Z,0
2018-01-12T02:07:05.940Z,0
2018-01-12T02:07:46.514Z,0
2018-01-12T02:08:27.092Z,0
2018-01-12T02:09:07.670Z,0
2018-01-12T02:09:48.250Z,0
2018-01-12T02:10:28.851Z,0
2018-01-12T02:11:09.406Z,0
2018-01-12T02:11:49.985Z,0
2018-01-12T02:12:30.577Z,0
2018-01-12T02:13:11.148Z,0
2018-01-12T02:13:51.744Z,0
2018-01-12T02:14:32.314Z,0
2018-01-12T02:15:12.882Z,0
2018-01-12T02:15:53.457Z,0
2018-01-12T02:16:34.008Z,0
2018-01-12T02:17:14.580Z,0
2018-01-12T02:17:55.167Z,0
2018-01-12T02:18:35.743Z,0
2018-01-12T02:19:16.301Z,0
2018-01-12T02:19:56.887Z,0
2018-01-12T02:20:37.461Z,0
2018-01-12T02:21:18.045Z,0
2018-01-12T02:21:58.600Z,0
2018-01-12T02:22:39.178Z,0
2018-01-12T02:23:19.744Z,0
2018-01-12T02:24:00.312Z,0
2018-01-12T02:24:40.995Z,0
2018-01-12T02:25:21.479Z,0
2018-01-12T02:26:02.047Z,0
2018-01-12T02:26:42.630Z,0
2018-01-12T02:27:23.213Z,0
2018-01-12T02:28:03.769Z,0
2018-01-12T02:28:44.332Z,0
2018-01-12T02:29:24.903Z,0
2018-01-12T02:30:05.465Z,0
2018-01-12T02:30:46.031Z,0
2018-01-12T02:31:26.605Z,0
2018-01-12T02:32:07.159Z,0
2018-01-12T02:32:47.725Z,0
2018-01-12T02:33:28.303Z,0
2018-01-12T02:34:08.866Z,0
2018-01-12T02:34:49.432Z,0
2018-01-12T02:35:30.031Z,0
2018-01-12T02:36:10.589Z,0
2018-01-12T02:36:51.151Z,0
2018-01-12T02:37:31.705Z,0
2018-01-12T02:38:12.272Z,0
2018-01-12T02:38:52.833Z,0
2018-01-12T02:39:33.415Z,0
2018-01-12T02:40:13.968Z,0
2018-01-12T02:40:54.563Z,0
2018-01-12T02:41:35.141Z,0
2018-01-12T02:42:15.711Z,0
2018-01-12T02:42:56.279Z,0
2018-01-12T02:43:36.838Z,0
2018-01-12T02:44:17.411Z,0
2018-01-12T02:44:57.983Z,0
2018-01-12T02:45:38.540Z,0
2018-01-12T02:46:19.114Z,0
2018-01-12T02:46:59.702Z,0
2018-01-12T02:47:40.251Z,0
2018-01-12T02:48:20.824Z,0
2018-01-12T02:49:01.393Z,0
2018-01-12T02:49:41.957Z,0
2018-01-12T02:50:22.522Z,0
2018-01-12T02:51:03.081Z,0
2018-01-12T02:51:43.662Z,0
2018-01-12T02:52:24.221Z,0
2018-01-12T02:53:04.789Z,0
2018-01-12T02:53:45.347Z,0
2018-01-12T02:54:25.930Z,0
2018-01-12T02:55:06.492Z,0
2018-01-12T02:55:47.108Z,0
2018-01-12T02:56:27.653Z,0
2018-01-12T02:57:08.226Z,0
2018-01-12T02:57:48.790Z,0
2018-01-12T02:58:29.381Z,0
2018-01-12T02:59:09.955Z,0
2018-01-12T02:59:50.512Z,0
2018-01-12T03:00:31.099Z,0
2018-01-12T03:01:11.666Z,0
2018-01-12T03:01:52.225Z,0
2018-01-12T03:02:32.897Z,0
2018-01-12T03:03:13.454Z,0
2018-01-12T03:03:54.039Z,0
2018-01-12T03:04:34.627Z,0
2018-01-12T03:05:15.205Z,0
2018-01-12T03:05:55.765Z,0
2018-01-12T03:06:36.333Z,0
2018-01-12T03:07:16.896Z,0
2018-01-12T03:07:57.460Z,0
2018-01-12T03:08:38.031Z,0
2018-01-12T03:09:18.583Z,0
2018-01-12T03:09:59.155Z,0
2018-01-12T03:10:39.703Z,0
2018-01-12T03:11:20.273Z,0
2018-01-12T03:12:00.832Z,0
2018-01-12T03:12:41.407Z,0
2018-01-12T03:13:21.984Z,0
2018-01-12T03:14:02.545Z,0
2018-01-12T03:14:43.106Z,0
2018-01-12T03:15:23.680Z,0
2018-01-12T03:16:04.255Z,0
2018-01-12T03:16:44.818Z,0
2018-01-12T03:17:25.373Z,0
2018-01-12T03:18:05.943Z,0
2018-01-12T03:18:46.524Z,0
2018-01-12T03:19:27.098Z,0
2018-01-12T03:20:07.656Z,0
2018-01-12T03:20:48.208Z,0
2018-01-12T03:21:28.763Z,0
2018-01-12T03:22:09.331Z,0
2018-01-12T03:22:49.891Z,0
2018-01-12T03:23:30.462Z,0
2018-01-12T03:24:11.046Z,0
2018-01-12T03:24:51.613Z,0
2018-01-12T03:25:32.173Z,0
2018-01-12T03:26:12.771Z,0
2018-01-12T03:26:53.346Z,0
2018-01-12T03:27:33.929Z,0
2018-01-12T03:28:14.488Z,0
2018-01-12T03:28:55.086Z,0
2018-01-12T03:29:35.649Z,0
2018-01-12T03:30:16.220Z,0
2018-01-12T03:30:56.797Z,0
2018-01-12T03:31:37.370Z,0
2018-01-12T03:32:17.982Z,0
2018-01-12T03:32:58.502Z,0
2018-01-12T03:33:39.078Z,0
2018-01-12T03:34:19.658Z,0
2018-01-12T03:35:00.232Z,0
2018-01-12T03:35:40.792Z,0
2018-01-12T03:36:21.368Z,0
2018-01-12T03:37:01.962Z,0
2018-01-12T03:37:42.535Z,0
2018-01-12T03:38:23.101Z,0
2018-01-12T03:39:03.666Z,0
2018-01-12T03:39:44.229Z,0
2018-01-12T03:40:24.802Z,0
2018-01-12T03:41:05.365Z,0
2018-01-12T03:41:45.938Z,0
2018-01-12T03:42:26.497Z,0
2018-01-12T03:43:07.060Z,0
2018-01-12T03:43:47.652Z,0
2018-01-12T03:44:28.223Z,0
2018-01-12T03:45:08.790Z,0
2018-01-12T03:45:49.348Z,0
2018-01-12T03:46:29.955Z,0
2018-01-12T03:47:10.536Z,0
2018-01-12T03:47:51.106Z,0
2018-01-12T03:48:31.670Z,0
2018-01-12T03:49:12.239Z,0
2018-01-12T03:49:52.806Z,0
2018-01-12T03:50:33.380Z,0
2018-01-12T03:51:13.968Z,0
2018-01-12T03:51:54.571Z,0
2018-01-12T03:52:35.140Z,0
2018-01-12T03:53:15.720Z,0
2018-01-12T03:53:56.281Z,0
2018-01-12T03:54:36.848Z,0
2018-01-12T03:55:17.412Z,0
2018-01-12T03:55:57.983Z,0
2018-01-12T03:56:38.544Z,0
2018-01-12T03:57:19.113Z,0
2018-01-12T03:57:59.676Z,0
2018-01-12T03:58:40.234Z,0
2018-01-12T03:59:20.806Z,0
2018-01-12T04:00:01.375Z,0
2018-01-12T04:00:41.957Z,0
2018-01-12T04:01:22.536Z,0
2018-01-12T04:02:03.111Z,0
2018-01-12T04:02:43.672Z,0
2018-01-12T04:03:24.270Z,0
2018-01-12T04:04:04.825Z,0
2018-01-12T04:04:45.408Z,0
2018-01-12T04:05:25.989Z,0
2018-01-12T04:06:06.551Z,0
2018-01-12T04:06:47.126Z,0
2018-01-12T04:07:27.703Z,0
2018-01-12T04:08:08.304Z,0
2018-01-12T04:08:48.878Z,0
2018-01-12T04:09:29.515Z,0
2018-01-12T04:10:10.103Z,0
2018-01-12T04:10:50.728Z,0
2018-01-12T04:11:31.286Z,0
2018-01-12T04:12:11.861Z,0
2018-01-12T04:12:52.427Z,0
2018-01-12T04:13:32.992Z,0
2018-01-12T04:14:13.556Z,0
2018-01-12T04:14:54.118Z,0
2018-01-12T04:15:34.685Z,0
2018-01-12T04:16:15.277Z,0
2018-01-12T04:16:55.857Z,0
2018-01-12T04:17:36.416Z,0
2018-01-12T04:18:16.994Z,0
2018-01-12T04:18:57.563Z,0
2018-01-12T04:19:38.130Z,0
2018-01-12T04:20:18.687Z,0
2018-01-12T04:20:59.280Z,0
2018-01-12T04:21:39.836Z,0
2018-01-12T04:22:20.421Z,0
2018-01-12T04:23:00.997Z,0
2018-01-12T04:23:41.600Z,0
2018-01-12T04:24:22.126Z,0
2018-01-12T04:25:02.705Z,0
2018-01-12T04:25:43.277Z,0
2018-01-12T04:26:23.847Z,0
2018-01-12T04:27:04.405Z,0
2018-01-12T04:27:44.968Z,0
2018-01-12T04:28:25.534Z,0
2018-01-12T04:29:06.098Z,0
2018-01-12T04:29:46.659Z,0
2018-01-12T04:30:27.239Z,0
2018-01-12T04:31:07.810Z,0
2018-01-12T04:31:48.412Z,0
2018-01-12T04:32:28.994Z,0
2018-01-12T04:33:09.574Z,0
2018-01-12T04:33:50.139Z,0
2018-01-12T04:34:30.695Z,0
2018-01-12T04:35:11.290Z,0
2018-01-12T04:35:51.826Z,0
2018-01-12T04:36:32.392Z,0
2018-01-12T04:37:12.947Z,0
2018-01-12T04:37:53.515Z,0
2018-01-12T04:38:34.087Z,0
2018-01-12T04:39:14.656Z,0
2018-01-12T04:39:55.230Z,0
2018-01-12T04:40:35.789Z,0
2018-01-12T04:41:16.349Z,0
2018-01-12T04:41:56.908Z,0
2018-01-12T04:42:37.476Z,0
2018-01-12T04:43:18.043Z,0
2018-01-12T04:43:58.607Z,0
2018-01-12T04:44:39.173Z,0
2018-01-12T04:45:19.743Z,0
2018-01-12T04:46:00.311Z,0
2018-01-12T04:46:40.884Z,0
2018-01-12T04:47:21.447Z,0
2018-01-12T04:48:01.997Z,0
2018-01-12T04:48:42.567Z,0
2018-01-12T04:49:23.132Z,0
2018-01-12T04:50:03.662Z,0
2018-01-12T04:50:44.257Z,0
2018-01-12T04:51:24.822Z,0
2018-01-12T04:52:05.386Z,0
2018-01-12T04:52:45.950Z,0
2018-01-12T04:53:26.515Z,0
2018-01-12T04:54:07.094Z,0
2018-01-12T04:54:47.661Z,0
2018-01-12T04:55:28.216Z,0
2018-01-12T04:56:08.785Z,0
2018-01-12T04:56:49.382Z,0
2018-01-12T04:57:29.946Z,0
2018-01-12T04:58:10.510Z,0
2018-01-12T04:58:51.082Z,0
2018-01-12T04:59:31.669Z,0
2018-01-12T05:00:12.231Z,0
2018-01-12T05:00:52.808Z,0
2018-01-12T05:01:33.383Z,0
2018-01-12T05:02:13.969Z,0
2018-01-12T05:02:54.538Z,0
2018-01-12T05:03:35.141Z,0
2018-01-12T05:04:15.694Z,0
2018-01-12T05:04:56.257Z,0
2018-01-12T05:05:36.837Z,0
2018-01-12T05:06:17.417Z,0
2018-01-12T05:06:58.006Z,0
2018-01-12T05:07:38.568Z,0
2018-01-12T05:08:19.128Z,0
2018-01-12T05:08:59.747Z,0
2018-01-12T05:09:40.308Z,0
2018-01-12T05:10:20.878Z,0
2018-01-12T05:11:01.445Z,0
2018-01-12T05:11:42.011Z,0
2018-01-12T05:12:22.807Z,0
2018-01-12T05:13:03.452Z,0
2018-01-12T05:13:44.011Z,0
2018-01-12T05:14:25.886Z,0
2018-01-12T05:15:06.728Z,0
2018-01-12T05:15:47.340Z,0
2018-01-12T05:16:28.123Z,0
2018-01-12T05:17:08.831Z,0
2018-01-12T05:17:49.443Z,0
2018-01-12T05:18:30.035Z,0
2018-01-12T05:19:10.608Z,0
2018-01-12T05:19:51.204Z,0
2018-01-12T05:20:31.773Z,0
2018-01-12T05:21:12.336Z,0
2018-01-12T05:21:53.018Z,0
2018-01-12T05:22:33.547Z,0
2018-01-12T05:23:14.126Z,0
2018-01-12T05:23:54.706Z,0
2018-01-12T05:24:35.274Z,0
2018-01-12T05:25:15.845Z,0
2018-01-12T05:25:56.415Z,0
2018-01-12T05:26:36.986Z,0
2018-01-12T05:27:17.551Z,0
2018-01-12T05:27:58.123Z,0
2018-01-12T05:28:38.698Z,0
2018-01-12T05:29:19.268Z,0
2018-01-12T05:29:59.829Z,0
2018-01-12T05:30:40.394Z,0
2018-01-12T05:31:21.006Z,0
2018-01-12T05:32:01.572Z,0
2018-01-12T05:32:42.134Z,0
2018-01-12T05:33:22.706Z,0
2018-01-12T05:34:03.279Z,0
2018-01-12T05:34:43.854Z,0
2018-01-12T05:35:24.472Z,0
2018-01-12T05:36:05.046Z,0
2018-01-12T05:36:45.621Z,0
2018-01-12T05:37:26.195Z,0
2018-01-12T05:38:06.779Z,0
2018-01-12T05:38:47.372Z,0
2018-01-12T05:39:27.946Z,0
2018-01-12T05:40:08.503Z,0
2018-01-12T05:40:49.089Z,0
2018-01-12T05:41:29.657Z,0
2018-01-12T05:42:10.267Z,0
2018-01-12T05:42:50.844Z,0
2018-01-12T05:43:31.400Z,0
2018-01-12T05:44:11.957Z,0
2018-01-12T05:44:52.521Z,0
2018-01-12T05:45:33.140Z,0
2018-01-12T05:46:13.723Z,0
2018-01-12T05:46:54.297Z,0
2018-01-12T05:47:34.874Z,0
2018-01-12T05:48:15.444Z,0
2018-01-12T05:48:55.998Z,0
2018-01-12T05:49:36.579Z,0
2018-01-12T05:50:17.158Z,0
2018-01-12T05:50:57.721Z,0
2018-01-12T05:51:38.292Z,0
2018-01-12T05:52:18.861Z,0
2018-01-12T05:52:59.493Z,0
2018-01-12T05:53:40.063Z,0
2018-01-12T05:54:20.636Z,0
2018-01-12T05:55:01.208Z,0
2018-01-12T05:55:41.768Z,0
2018-01-12T05:56:22.331Z,0
2018-01-12T05:57:02.929Z,0
2018-01-12T05:57:43.522Z,0
2018-01-12T05:58:24.105Z,0
2018-01-12T05:59:04.717Z,0
2018-01-12T05:59:45.281Z,0
2018-01-12T06:00:25.869Z,0
2018-01-12T06:01:06.439Z,0
2018-01-12T06:01:46.995Z,0
2018-01-12T06:02:27.578Z,0
2018-01-12T06:03:08.150Z,0
2018-01-12T06:03:48.784Z,0
2018-01-12T06:04:29.401Z,0
2018-01-12T06:05:09.980Z,0
2018-01-12T06:05:50.517Z,0
2018-01-12T06:06:31.070Z,0
2018-01-12T06:07:11.627Z,0
2018-01-12T06:07:52.185Z,0
2018-01-12T06:08:32.754Z,0
2018-01-12T06:09:13.326Z,0
2018-01-12T06:09:53.880Z,0
2018-01-12T06:10:34.432Z,0
2018-01-12T06:11:15.048Z,0
2018-01-12T06:11:55.616Z,0
2018-01-12T06:12:36.198Z,0
2018-01-12T06:13:16.755Z,0
2018-01-12T06:13:57.342Z,0
2018-01-12T06:14:37.917Z,0
2018-01-12T06:15:18.506Z,0
2018-01-12T06:15:59.116Z,0
2018-01-12T06:16:39.674Z,0
2018-01-12T06:17:20.232Z,0
2018-01-12T06:18:00.787Z,0
2018-01-12T06:18:41.364Z,0
2018-01-12T06:19:21.954Z,0
2018-01-12T06:20:02.542Z,0
2018-01-12T06:20:43.092Z,0
2018-01-12T06:21:23.647Z,0
2018-01-12T06:22:04.255Z,0
2018-01-12T06:22:45.194Z,0
2018-01-12T06:23:25.764Z,0
2018-01-12T06:24:06.372Z,0
2018-01-12T06:24:46.967Z,0
2018-01-12T06:25:27.639Z,0
2018-01-12T06:26:08.234Z,0
2018-01-12T06:26:48.784Z,0
2018-01-12T06:27:29.378Z,0
2018-01-12T06:28:09.954Z,0
2018-01-12T06:28:50.529Z,0
2018-01-12T06:29:31.116Z,0
2018-01-12T06:30:11.692Z,0
2018-01-12T06:30:52.251Z,0
2018-01-12T06:31:32.828Z,0
2018-01-12T06:32:13.427Z,0
2018-01-12T06:32:54.010Z,0
2018-01-12T06:33:34.583Z,0
2018-01-12T06:34:15.174Z,0
2018-01-12T06:34:55.755Z,0
2018-01-12T06:35:36.340Z,0
2018-01-12T06:36:16.920Z,0
2018-01-12T06:36:57.478Z,0
2018-01-12T06:37:38.068Z,0
2018-01-12T06:38:18.674Z,0
2018-01-12T06:38:59.283Z,0
2018-01-12T06:39:39.960Z,0
2018-01-12T06:40:20.692Z,0
2018-01-12T06:41:01.292Z,0
2018-01-12T06:41:41.904Z,0
2018-01-12T06:42:22.519Z,0
2018-01-12T06:43:03.106Z,0
2018-01-12T06:43:43.720Z,0
2018-01-12T06:44:24.311Z,0
2018-01-12T06:45:04.879Z,0
2018-01-12T06:45:45.469Z,0
2018-01-12T06:46:26.032Z,0
2018-01-12T06:47:06.614Z,0
2018-01-12T06:47:47.181Z,0
2018-01-12T06:48:27.742Z,0
2018-01-12T06:49:08.310Z,0
2018-01-12T06:49:48.870Z,0
2018-01-12T06:50:29.432Z,4
2018-01-12T06:51:10.003Z,4
2018-01-12T06:51:50.562Z,4
2018-01-12T06:52:31.124Z,4
2018-01-12T06:53:11.786Z,0
2018-01-12T06:53:52.261Z,0
2018-01-12T06:54:32.900Z,0
2018-01-12T06:55:13.439Z,0
2018-01-12T06:55:54.011Z,4
2018-01-12T06:56:34.582Z,4
2018-01-12T06:57:15.155Z,4
2018-01-12T06:57:55.752Z,4
2018-01-12T06:58:36.323Z,4
2018-01-12T06:59:16.872Z,0
2018-01-12T06:59:57.440Z,4
2018-01-12T07:00:37.999Z,4
2018-01-12T07:01:18.557Z,4
2018-01-12T07:01:59.126Z,4
2018-01-12T07:02:39.689Z,8
2018-01-12T07:03:20.258Z,4
2018-01-12T07:04:00.830Z,4
2018-01-12T07:04:41.410Z,4
2018-01-12T07:05:21.954Z,8
2018-01-12T07:06:02.522Z,8
2018-01-12T07:06:43.074Z,8
2018-01-12T07:07:23.633Z,4
2018-01-12T07:08:04.203Z,4
2018-01-12T07:08:44.768Z,8
2018-01-12T07:09:25.344Z,8
2018-01-12T07:10:05.909Z,8
2018-01-12T07:10:46.462Z,12
2018-01-12T07:11:27.020Z,8
2018-01-12T07:12:07.616Z,12
2018-01-12T07:12:48.175Z,8
2018-01-12T07:13:28.739Z,8
2018-01-12T07:14:09.310Z,8
2018-01-12T07:14:49.901Z,12
2018-01-12T07:15:30.458Z,12
2018-01-12T07:16:11.044Z,16
2018-01-12T07:16:51.621Z,12
2018-01-12T07:17:32.192Z,16
2018-01-12T07:18:12.782Z,16
2018-01-12T07:18:53.360Z,16
2018-01-12T07:19:33.916Z,16
2018-01-12T07:20:14.493Z,16
2018-01-12T07:20:55.057Z,20
2018-01-12T07:21:35.621Z,20
2018-01-12T07:22:16.186Z,20
2018-01-12T07:22:56.745Z,20
2018-01-12T07:23:37.307Z,24
2018-01-12T07:24:17.865Z,28
2018-01-12T07:24:58.567Z,28
2018-01-12T07:25:39.156Z,28
2018-01-12T07:26:19.737Z,28
2018-01-12T07:27:00.296Z,28
2018-01-12T07:27:40.861Z,32
2018-01-12T07:28:21.438Z,28
2018-01-12T07:29:01.997Z,32
2018-01-12T07:29:42.609Z,32
2018-01-12T07:30:23.194Z,32
2018-01-12T07:31:03.778Z,36
2018-01-12T07:31:44.375Z,32
2018-01-12T07:32:24.978Z,32
2018-01-12T07:33:05.562Z,36
2018-01-12T07:33:46.138Z,40
2018-01-12T07:34:26.712Z,36
2018-01-12T07:35:07.294Z,40
2018-01-12T07:35:47.883Z,40
2018-01-12T07:36:28.457Z,40
2018-01-12T07:37:09.009Z,48
2018-01-12T07:37:49.572Z,48
2018-01-12T07:38:30.170Z,56
2018-01-12T07:39:10.798Z,56
2018-01-12T07:39:51.408Z,52
2018-01-12T07:40:31.986Z,56
2018-01-12T07:41:12.564Z,60
2018-01-12T07:41:53.160Z,64
2018-01-12T07:42:33.722Z,64
2018-01-12T07:43:14.282Z,64
2018-01-12T07:43:54.837Z,64
2018-01-12T07:44:35.425Z,68
2018-01-12T07:45:16.011Z,64
2018-01-12T07:45:56.586Z,68
2018-01-12T07:46:37.162Z,68
2018-01-12T07:47:17.786Z,72
2018-01-12T07:47:58.377Z,76
2018-01-12T07:48:38.953Z,88
2018-01-12T07:49:19.569Z,92
2018-01-12T07:50:00.154Z,92
2018-01-12T07:50:40.718Z,92
2018-01-12T07:51:21.287Z,84
2018-01-12T07:52:01.865Z,76
2018-01-12T07:52:42.431Z,76
2018-01-12T07:53:23.005Z,80
2018-01-12T07:54:03.618Z,80
2018-01-12T07:54:44.235Z,88
2018-01-12T07:55:24.807Z,96
2018-01-12T07:56:05.365Z,104
2018-01-12T07:56:45.921Z,108
2018-01-12T07:57:26.489Z,100
2018-01-12T07:58:07.068Z,100
2018-01-12T07:58:47.638Z,104
2018-01-12T07:59:28.208Z,128
2018-01-12T08:00:10.621Z,140
2018-01-12T08:00:51.230Z,152
2018-01-12T08:01:31.733Z,156
2018-01-12T08:02:12.323Z,152
2018-01-12T08:02:52.929Z,152
2018-01-12T08:03:33.520Z,152
2018-01-12T08:04:14.078Z,160
2018-01-12T08:04:54.625Z,176
2018-01-12T08:05:35.187Z,192
2018-01-12T08:06:15.770Z,188
2018-01-12T08:06:56.341Z,184
2018-01-12T08:07:36.903Z,184
2018-01-12T08:08:17.492Z,200
2018-01-12T08:08:58.062Z,216
2018-01-12T08:09:38.629Z,224
2018-01-12T08:10:19.170Z,220
2018-01-12T08:10:59.733Z,220
2018-01-12T08:11:40.316Z,216
2018-01-12T08:12:20.913Z,212
2018-01-12T08:13:01.442Z,208
2018-01-12T08:13:41.994Z,204
2018-01-12T08:14:22.571Z,216
2018-01-12T08:15:03.137Z,220
2018-01-12T08:15:43.692Z,244
2018-01-12T08:16:24.256Z,240
2018-01-12T08:17:04.833Z,232
2018-01-12T08:17:45.394Z,224
2018-01-12T08:18:25.943Z,212
2018-01-12T08:19:06.492Z,212
2018-01-12T08:19:47.046Z,212
2018-01-12T08:20:27.618Z,232
2018-01-12T08:21:08.178Z,248
2018-01-12T08:21:48.744Z,264
2018-01-12T08:22:29.302Z,272
2018-01-12T08:23:09.894Z,280
2018-01-12T08:23:50.474Z,308
2018-01-12T08:24:31.046Z,312
2018-01-12T08:25:11.626Z,304
2018-01-12T08:25:52.194Z,292
2018-01-12T08:26:32.744Z,276
2018-01-12T08:27:13.299Z,296
2018-01-12T08:27:53.852Z,296
2018-01-12T08:28:34.415Z,312
2018-01-12T08:29:14.995Z,308
2018-01-12T08:29:55.561Z,308
2018-01-12T08:30:36.135Z,304
2018-01-12T08:31:16.681Z,292
2018-01-12T08:31:57.252Z,324
2018-01-12T08:32:37.806Z,376
2018-01-12T08:33:18.374Z,424
2018-01-12T08:33:58.941Z,452
2018-01-12T08:34:39.511Z,444
2018-01-12T08:35:20.070Z,424
2018-01-12T08:36:00.671Z,424
2018-01-12T08:36:41.210Z,396
2018-01-12T08:37:21.799Z,356
2018-01-12T08:38:02.370Z,320
2018-01-12T08:38:42.923Z,300
2018-01-12T08:39:23.498Z,276
2018-01-12T08:40:04.170Z,264
2018-01-12T08:40:44.745Z,248
2018-01-12T08:41:25.323Z,252
2018-01-12T08:42:05.877Z,236
2018-01-12T08:42:46.434Z,216
2018-01-12T08:43:27.019Z,224
2018-01-12T08:44:07.601Z,216
2018-01-12T08:44:48.165Z,212
2018-01-12T08:45:28.762Z,224
2018-01-12T08:46:09.330Z,240
2018-01-12T08:46:49.932Z,284
2018-01-12T08:47:30.538Z,308
2018-01-12T08:48:11.118Z,304
2018-01-12T08:48:51.743Z,308
2018-01-12T08:49:32.297Z,340
2018-01-12T08:50:12.873Z,364
2018-01-12T08:50:53.450Z,364
2018-01-12T08:51:34.016Z,372
2018-01-12T08:52:14.588Z,392
2018-01-12T08:52:55.164Z,392
2018-01-12T08:53:35.731Z,412
2018-01-12T08:54:16.291Z,424
2018-01-12T08:54:56.845Z,448
2018-01-12T08:55:37.402Z,468
2018-01-12T08:56:17.979Z,484
2018-01-12T08:56:58.533Z,444
2018-01-12T08:57:39.106Z,412
2018-01-12T08:58:19.661Z,388
2018-01-12T08:59:00.233Z,372
2018-01-12T08:59:40.782Z,368
2018-01-12T09:00:21.351Z,392
2018-01-12T09:01:01.910Z,468
2018-01-12T09:01:42.470Z,504
2018-01-12T09:02:23.177Z,504
2018-01-12T09:03:03.749Z,496
2018-01-12T09:03:44.362Z,464
2018-01-12T09:04:24.943Z,448
2018-01-12T09:05:05.504Z,436
2018-01-12T09:05:46.068Z,452
2018-01-12T09:06:26.704Z,456
2018-01-12T09:07:07.262Z,444
2018-01-12T09:07:47.831Z,420
2018-01-12T09:08:28.391Z,380
2018-01-12T09:09:08.972Z,348
2018-01-12T09:09:49.568Z,312
2018-01-12T09:10:30.150Z,292
2018-01-12T09:11:10.865Z,276
2018-01-12T09:11:51.431Z,280
2018-01-12T09:12:32.018Z,268
2018-01-12T09:13:12.581Z,252
2018-01-12T09:13:53.155Z,256
2018-01-12T09:14:33.721Z,244
2018-01-12T09:15:14.324Z,264
2018-01-12T09:15:54.933Z,244
2018-01-12T09:16:35.526Z,228
2018-01-12T09:17:16.100Z,232
2018-01-12T09:17:56.670Z,260
2018-01-12T09:18:37.239Z,252
2018-01-12T09:19:17.792Z,260
2018-01-12T09:19:58.369Z,280
2018-01-12T09:20:38.941Z,288
2018-01-12T09:21:19.525Z,288
2018-01-12T09:22:00.088Z,300
2018-01-12T09:22:40.662Z,300
2018-01-12T09:23:21.223Z,296
2018-01-12T09:24:01.795Z,308
2018-01-12T09:24:42.370Z,304
2018-01-12T09:25:22.924Z,288
2018-01-12T09:26:03.477Z,268
2018-01-12T09:26:44.048Z,264
2018-01-12T09:27:24.611Z,276
2018-01-12T09:28:05.171Z,296
2018-01-12T09:28:45.736Z,304
2018-01-12T09:29:26.316Z,308
2018-01-12T09:30:06.858Z,316
2018-01-12T09:30:47.441Z,340
2018-01-12T09:31:28.006Z,364
2018-01-12T09:32:08.587Z,384
2018-01-12T09:32:49.148Z,360
2018-01-12T09:33:29.735Z,360
2018-01-12T09:34:10.325Z,344
2018-01-12T09:34:50.879Z,348
2018-01-12T09:35:31.458Z,340
2018-01-12T09:36:12.018Z,332
2018-01-12T09:36:52.584Z,340
2018-01-12T09:37:33.139Z,332
2018-01-12T09:38:13.758Z,336
2018-01-12T09:38:54.320Z,336
2018-01-12T09:39:34.878Z,320
2018-01-12T09:40:15.445Z,316
2018-01-12T09:40:56.013Z,352
2018-01-12T09:41:36.579Z,356
2018-01-12T09:42:17.149Z,356
2018-01-12T09:42:57.717Z,356
2018-01-12T09:43:38.277Z,372
2018-01-12T09:44:18.871Z,416
2018-01-12T09:44:59.440Z,400
2018-01-12T09:45:40.017Z,384
2018-01-12T09:46:20.574Z,392
2018-01-12T09:47:01.143Z,400
2018-01-12T09:47:41.711Z,388
2018-01-12T09:48:22.327Z,368
2018-01-12T09:49:02.846Z,340
2018-01-12T09:49:43.414Z,332
2018-01-12T09:50:23.992Z,332